createdAt,value
2018-09-15T00:00:26.298Z,16.20
2018-09-15T00:01:26.188Z,16.80
2018-09-15T00:02:26.095Z,17.10
2018-09-15T00:03:26.006Z,18.00
2018-09-15T00:04:25.910Z,17.10
2018-09-15T00:05:25.833Z,16.40
2018-09-15T00:06:25.729Z,15.90
2018-09-15T00:07:25.635Z,15.80
2018-09-15T00:08:25.541Z,17.00
2018-09-15T00:09:25.453Z,16.20
2018-09-15T00:10:25.378Z,16.20
2018-09-15T00:11:25.269Z,15.70
2018-09-15T00:12:25.173Z,16.00
2018-09-15T00:13:25.084Z,16.00
2018-09-15T00:14:24.989Z,15.70
2018-09-15T00:15:24.917Z,15.50
2018-09-15T00:16:24.807Z,16.80
2018-09-15T00:17:24.711Z,16.10
2018-09-15T00:18:24.620Z,16.00
2018-09-15T00:19:24.527Z,16.20
2018-09-15T00:20:24.452Z,16.50
2018-09-15T00:21:24.345Z,15.80
2018-09-15T00:22:24.251Z,16.00
2018-09-15T00:23:24.161Z,15.10
2018-09-15T00:24:24.068Z,16.50
2018-09-15T00:25:23.990Z,15.40
2018-09-15T00:26:23.883Z,15.50
2018-09-15T00:27:23.789Z,15.90
2018-09-15T00:28:23.695Z,16.10
2018-09-15T00:29:23.604Z,17.10
2018-09-15T00:30:23.529Z,17.00
2018-09-15T00:31:23.420Z,16.60
2018-09-15T00:32:23.325Z,17.20
2018-09-15T00:33:23.231Z,16.90
2018-09-15T00:34:23.143Z,17.20
2018-09-15T00:35:23.068Z,17.80
2018-09-15T00:36:22.954Z,16.90
2018-09-15T00:37:22.864Z,16.90
2018-09-15T00:38:22.768Z,17.40
2018-09-15T00:39:22.678Z,17.10
2018-09-15T00:40:22.600Z,16.70
2018-09-15T00:41:22.501Z,16.40
2018-09-15T00:42:22.399Z,17.20
2018-09-15T00:43:22.306Z,17.70
2018-09-15T00:44:22.213Z,18.30
2018-09-15T00:45:22.141Z,17.00
2018-09-15T00:46:22.027Z,16.90
2018-09-15T00:47:21.935Z,17.40
2018-09-15T00:48:21.840Z,17.00
2018-09-15T00:49:21.748Z,17.00
2018-09-15T00:50:21.674Z,16.70
2018-09-15T00:51:21.565Z,17.70
2018-09-15T00:52:21.474Z,17.50
2018-09-15T00:53:21.380Z,17.60
2018-09-15T00:54:21.288Z,16.80
2018-09-15T00:55:21.212Z,17.90
2018-09-15T00:56:21.101Z,17.80
2018-09-15T00:57:21.009Z,18.30
2018-09-15T00:58:20.915Z,18.30
2018-09-15T00:59:20.920Z,18.50
2018-09-15T01:00:20.749Z,18.30
2018-09-15T01:01:20.644Z,19.20
2018-09-15T01:02:20.547Z,19.90
2018-09-15T01:03:20.455Z,18.80
2018-09-15T01:04:20.365Z,17.80
2018-09-15T01:05:20.285Z,17.40
2018-09-15T01:06:20.290Z,16.70
2018-09-15T01:07:20.085Z,17.80
2018-09-15T01:08:19.990Z,18.00
2018-09-15T01:09:19.898Z,17.00
2018-09-15T01:10:19.841Z,17.50
2018-09-15T01:11:19.715Z,17.40
2018-09-15T01:12:19.643Z,17.50
2018-09-15T01:13:19.633Z,17.90
2018-09-15T01:14:19.550Z,17.60
2018-09-15T01:15:19.358Z,18.60
2018-09-15T01:16:19.251Z,17.20
2018-09-15T01:17:19.160Z,18.40
2018-09-15T01:18:19.062Z,18.50
2018-09-15T01:19:18.973Z,18.30
2018-09-15T01:20:19.000Z,21.10
2018-09-15T01:21:18.786Z,18.70
2018-09-15T01:22:18.694Z,20.40
2018-09-15T01:23:18.601Z,17.50
2018-09-15T01:24:18.512Z,17.90
2018-09-15T01:25:18.429Z,17.40
2018-09-15T01:26:18.319Z,17.00
2018-09-15T01:27:18.323Z,20.60
2018-09-15T01:28:18.135Z,20.40
2018-09-15T01:29:18.040Z,21.10
2018-09-15T01:30:17.953Z,23.00
2018-09-15T01:31:17.874Z,22.00
2018-09-15T01:32:17.763Z,20.80
2018-09-15T01:33:17.690Z,21.40
2018-09-15T01:34:17.700Z,22.70
2018-09-15T01:35:17.492Z,18.80
2018-09-15T01:36:17.408Z,18.30
2018-09-15T01:37:17.299Z,17.80
2018-09-15T01:38:17.207Z,18.20
2018-09-15T01:39:17.115Z,17.50
2018-09-15T01:40:17.021Z,17.10
2018-09-15T01:41:16.945Z,18.30
2018-09-15T01:42:16.838Z,16.80
2018-09-15T01:43:16.742Z,16.90
2018-09-15T01:44:16.650Z,19.30
2018-09-15T01:45:16.563Z,19.40
2018-09-15T01:46:16.485Z,19.30
2018-09-15T01:47:16.377Z,20.60
2018-09-15T01:48:16.281Z,18.70
2018-09-15T01:49:16.488Z,16.80
2018-09-15T01:50:16.095Z,17.50
2018-09-15T01:51:16.019Z,18.00
2018-09-15T01:52:15.910Z,18.20
2018-09-15T01:53:15.818Z,17.20
2018-09-15T01:54:15.727Z,17.50
2018-09-15T01:55:15.650Z,17.70
2018-09-15T01:56:15.674Z,17.60
2018-09-15T01:57:15.449Z,17.90
2018-09-15T01:58:15.355Z,17.20
2018-09-15T01:59:15.263Z,18.20
2018-09-15T02:00:15.170Z,18.70
2018-09-15T02:01:15.096Z,18.50
2018-09-15T02:02:14.991Z,18.10
2018-09-15T02:03:14.990Z,18.60
2018-09-15T02:04:14.800Z,18.50
2018-09-15T02:05:14.706Z,17.90
2018-09-15T02:06:14.631Z,18.10
2018-09-15T02:07:14.519Z,18.70
2018-09-15T02:08:14.430Z,18.30
2018-09-15T02:09:14.336Z,18.70
2018-09-15T02:10:14.349Z,17.60
2018-09-15T02:11:14.169Z,17.50
2018-09-15T02:12:14.060Z,17.40
2018-09-15T02:13:13.966Z,17.30
2018-09-15T02:14:13.873Z,17.60
2018-09-15T02:15:13.793Z,17.00
2018-09-15T02:16:13.707Z,17.50
2018-09-15T02:17:13.701Z,17.60
2018-09-15T02:18:13.504Z,17.50
2018-09-15T02:19:13.418Z,17.80
2018-09-15T02:20:13.318Z,17.50
2018-09-15T02:21:13.243Z,18.00
2018-09-15T02:22:13.132Z,18.00
2018-09-15T02:23:13.042Z,17.50
2018-09-15T02:24:12.952Z,16.50
2018-09-15T02:25:12.854Z,16.50
2018-09-15T02:26:12.782Z,17.10
2018-09-15T02:27:12.672Z,16.80
2018-09-15T02:28:12.579Z,17.20
2018-09-15T02:29:12.487Z,17.40
2018-09-15T02:30:12.392Z,17.30
2018-09-15T02:31:12.419Z,16.80
2018-09-15T02:32:12.220Z,16.40
2018-09-15T02:33:12.117Z,16.60
2018-09-15T02:34:12.023Z,15.90
2018-09-15T02:35:11.939Z,16.60
2018-09-15T02:36:11.857Z,16.30
2018-09-15T02:37:11.874Z,16.00
2018-09-15T02:38:11.651Z,16.30
2018-09-15T02:39:11.561Z,15.90
2018-09-15T02:40:11.469Z,16.80
2018-09-15T02:41:11.393Z,16.20
2018-09-15T02:42:11.284Z,15.90
2018-09-15T02:43:11.190Z,15.50
2018-09-15T02:44:11.099Z,15.30
2018-09-15T02:45:11.004Z,16.70
2018-09-15T02:46:10.929Z,16.90
2018-09-15T02:47:10.822Z,16.10
2018-09-15T02:48:10.727Z,15.90
2018-09-15T02:49:10.640Z,17.10
2018-09-15T02:50:10.545Z,16.20
2018-09-15T02:51:10.467Z,16.50
2018-09-15T02:52:10.362Z,16.80
2018-09-15T02:53:10.267Z,16.40
2018-09-15T02:54:10.174Z,16.30
2018-09-15T02:55:10.083Z,15.90
2018-09-15T02:56:10.015Z,15.70
2018-09-15T02:57:09.900Z,15.70
2018-09-15T02:58:09.808Z,16.20
2018-09-15T02:59:09.714Z,16.80
2018-09-15T03:00:09.619Z,16.20
2018-09-15T03:01:09.545Z,16.00
2018-09-15T03:02:09.434Z,15.80
2018-09-15T03:03:09.344Z,15.40
2018-09-15T03:04:09.251Z,15.70
2018-09-15T03:05:09.159Z,15.70
2018-09-15T03:06:09.080Z,15.10
2018-09-15T03:07:08.976Z,15.00
2018-09-15T03:08:08.880Z,14.60
2018-09-15T03:09:08.789Z,14.50
2018-09-15T03:10:08.698Z,15.20
2018-09-15T03:11:08.609Z,16.40
2018-09-15T03:12:08.530Z,16.60
2018-09-15T03:13:08.416Z,16.50
2018-09-15T03:14:08.326Z,16.00
2018-09-15T03:15:08.232Z,16.70
2018-09-15T03:16:08.163Z,17.00
2018-09-15T03:17:08.050Z,17.30
2018-09-15T03:18:07.961Z,16.60
2018-09-15T03:19:07.868Z,17.20
2018-09-15T03:20:07.774Z,18.20
2018-09-15T03:21:07.683Z,17.90
2018-09-15T03:22:07.605Z,17.50
2018-09-15T03:23:07.494Z,16.70
2018-09-15T03:24:07.405Z,15.90
2018-09-15T03:25:07.315Z,15.90
2018-09-15T03:26:07.219Z,15.70
2018-09-15T03:27:07.144Z,15.70
2018-09-15T03:28:07.036Z,16.20
2018-09-15T03:29:06.941Z,16.00
2018-09-15T03:30:06.846Z,16.30
2018-09-15T03:31:06.757Z,17.00
2018-09-15T03:32:06.679Z,16.60
2018-09-15T03:33:06.568Z,17.10
2018-09-15T03:34:06.478Z,17.60
2018-09-15T03:35:06.386Z,17.80
2018-09-15T03:36:06.295Z,17.80
2018-09-15T03:37:06.215Z,17.60
2018-09-15T03:38:06.106Z,18.10
2018-09-15T03:39:06.018Z,17.70
2018-09-15T03:40:05.965Z,17.00
2018-09-15T03:41:05.832Z,16.70
2018-09-15T03:42:05.755Z,18.10
2018-09-15T03:43:05.647Z,18.00
2018-09-15T03:44:05.554Z,17.70
2018-09-15T03:45:05.460Z,18.90
2018-09-15T03:46:05.367Z,18.70
2018-09-15T03:47:05.300Z,17.20
2018-09-15T03:48:05.180Z,17.80
2018-09-15T03:49:05.090Z,17.10
2018-09-15T03:50:04.997Z,16.40
2018-09-15T03:51:04.906Z,15.80
2018-09-15T03:52:04.830Z,17.50
2018-09-15T03:53:04.719Z,17.50
2018-09-15T03:54:04.627Z,17.00
2018-09-15T03:55:04.532Z,16.80
2018-09-15T03:56:04.440Z,17.80
2018-09-15T03:57:04.371Z,17.20
2018-09-15T03:58:04.254Z,17.70
2018-09-15T03:59:04.161Z,18.40
2018-09-15T04:00:04.093Z,18.80
2018-09-15T04:01:04.076Z,17.30
2018-09-15T04:02:03.900Z,18.10
2018-09-15T04:03:03.790Z,17.80
2018-09-15T04:04:03.702Z,17.90
2018-09-15T04:05:03.604Z,18.00
2018-09-15T04:06:03.511Z,17.40
2018-09-15T04:07:03.457Z,17.50
2018-09-15T04:08:03.443Z,17.10
2018-09-15T04:09:03.235Z,17.80
2018-09-15T04:10:03.145Z,16.50
2018-09-15T04:11:03.047Z,16.40
2018-09-15T04:12:02.974Z,16.60
2018-09-15T04:13:02.867Z,15.60
2018-09-15T04:14:02.769Z,15.70
2018-09-15T04:15:02.779Z,15.50
2018-09-15T04:16:02.587Z,15.50
2018-09-15T04:17:02.524Z,15.50
2018-09-15T04:18:02.398Z,15.20
2018-09-15T04:19:02.368Z,15.10
2018-09-15T04:20:02.214Z,15.30
2018-09-15T04:21:02.121Z,13.90
2018-09-15T04:22:02.149Z,12.70
2018-09-15T04:23:01.943Z,12.90
2018-09-15T04:24:01.846Z,12.50
2018-09-15T04:25:01.748Z,11.60
2018-09-15T04:26:01.664Z,12.10
2018-09-15T04:27:01.595Z,12.00
2018-09-15T04:28:01.472Z,11.70
2018-09-15T04:29:01.480Z,12.00
2018-09-15T04:30:01.289Z,11.40
2018-09-15T04:31:01.196Z,11.40
2018-09-15T04:32:01.119Z,11.40
2018-09-15T04:33:01.012Z,11.60
2018-09-15T04:34:00.919Z,12.60
2018-09-15T04:35:00.824Z,12.10
2018-09-15T04:36:00.831Z,11.80
2018-09-15T04:37:00.668Z,12.10
2018-09-15T04:38:00.548Z,12.00
2018-09-15T04:39:00.450Z,12.90
2018-09-15T04:40:00.357Z,12.70
2018-09-15T04:41:00.263Z,12.40
2018-09-15T04:42:00.189Z,12.20
2018-09-15T04:43:00.181Z,12.90
2018-09-15T04:43:59.985Z,12.10
2018-09-15T04:44:59.894Z,12.90
2018-09-15T04:45:59.801Z,12.80
2018-09-15T04:46:59.721Z,13.00
2018-09-15T04:47:59.612Z,12.50
2018-09-15T04:48:59.530Z,12.60
2018-09-15T04:49:59.535Z,13.10
2018-09-15T04:50:59.337Z,13.20
2018-09-15T04:51:59.258Z,13.50
2018-09-15T04:52:59.155Z,12.80
2018-09-15T04:53:59.055Z,13.10
2018-09-15T04:54:58.967Z,12.50
2018-09-15T04:55:58.872Z,12.90
2018-09-15T04:56:58.891Z,13.00
2018-09-15T04:57:58.681Z,12.40
2018-09-15T04:58:58.594Z,13.80
2018-09-15T04:59:58.498Z,13.40
2018-09-15T05:00:58.405Z,13.30
2018-09-15T05:01:58.312Z,12.90
2018-09-15T05:02:58.234Z,13.20
2018-09-15T05:03:58.227Z,12.70
2018-09-15T05:04:58.029Z,13.10
2018-09-15T05:05:57.936Z,13.50
2018-09-15T05:06:57.850Z,13.00
2018-09-15T05:07:57.790Z,13.40
2018-09-15T05:08:57.656Z,13.70
2018-09-15T05:09:57.564Z,12.80
2018-09-15T05:10:57.578Z,13.30
2018-09-15T05:11:57.382Z,13.10
2018-09-15T05:12:57.394Z,13.10
2018-09-15T05:13:57.193Z,13.60
2018-09-15T05:14:57.099Z,13.60
2018-09-15T05:15:57.006Z,13.50
2018-09-15T05:16:56.915Z,13.80
2018-09-15T05:17:56.931Z,13.40
2018-09-15T05:18:56.730Z,13.40
2018-09-15T05:19:56.678Z,13.30
2018-09-15T05:20:56.543Z,13.70
2018-09-15T05:21:56.453Z,13.30
2018-09-15T05:22:56.371Z,14.10
2018-09-15T05:23:56.262Z,14.30
2018-09-15T05:24:56.170Z,14.30
2018-09-15T05:25:56.075Z,14.30
2018-09-15T05:26:55.983Z,14.70
2018-09-15T05:27:55.911Z,15.20
2018-09-15T05:28:55.803Z,14.40
2018-09-15T05:29:55.704Z,14.50
2018-09-15T05:30:55.610Z,14.40
2018-09-15T05:31:55.520Z,14.20
2018-09-15T05:32:55.451Z,14.60
2018-09-15T05:33:55.332Z,14.80
2018-09-15T05:34:55.237Z,14.10
2018-09-15T05:35:55.144Z,14.60
2018-09-15T05:36:55.052Z,15.00
2018-09-15T05:37:54.976Z,14.60
2018-09-15T05:38:54.864Z,15.20
2018-09-15T05:39:54.796Z,14.30
2018-09-15T05:40:54.682Z,14.20
2018-09-15T05:41:54.584Z,14.30
2018-09-15T05:42:54.508Z,14.90
2018-09-15T05:43:54.399Z,14.50
2018-09-15T05:44:54.306Z,14.00
2018-09-15T05:45:54.214Z,13.60
2018-09-15T05:46:54.122Z,14.20
2018-09-15T05:47:54.043Z,15.00
2018-09-15T05:48:53.938Z,14.00
2018-09-15T05:49:53.838Z,14.20
2018-09-15T05:50:53.749Z,14.20
2018-09-15T05:51:53.655Z,14.10
2018-09-15T05:52:53.577Z,14.40
2018-09-15T05:53:53.468Z,13.60
2018-09-15T05:54:53.375Z,13.60
2018-09-15T05:55:53.328Z,13.80
2018-09-15T05:56:53.189Z,13.20
2018-09-15T05:57:53.117Z,12.60
2018-09-15T05:58:53.017Z,12.30
2018-09-15T05:59:52.910Z,12.30
2018-09-15T06:00:52.816Z,13.00
2018-09-15T06:01:52.741Z,12.90
2018-09-15T06:02:52.650Z,12.10
2018-09-15T06:03:52.542Z,11.90
2018-09-15T06:04:52.447Z,12.70
2018-09-15T06:05:52.353Z,13.20
2018-09-15T06:06:52.309Z,12.20
2018-09-15T06:07:52.185Z,12.00
2018-09-15T06:08:52.072Z,11.60
2018-09-15T06:09:51.979Z,12.40
2018-09-15T06:10:51.889Z,12.20
2018-09-15T06:11:51.797Z,11.50
2018-09-15T06:12:51.719Z,11.80
2018-09-15T06:13:51.693Z,11.00
2018-09-15T06:14:51.518Z,10.60
2018-09-15T06:15:51.430Z,10.80
2018-09-15T06:16:51.333Z,10.50
2018-09-15T06:17:51.259Z,10.70
2018-09-15T06:18:51.150Z,10.90
2018-09-15T06:19:51.061Z,10.90
2018-09-15T06:20:50.962Z,10.20
2018-09-15T06:21:50.877Z,10.80
2018-09-15T06:22:50.796Z,10.20
2018-09-15T06:23:50.692Z,10.10
2018-09-15T06:24:50.598Z,10.50
2018-09-15T06:25:50.506Z,10.10
2018-09-15T06:26:50.412Z,9.80
2018-09-15T06:27:50.339Z,10.00
2018-09-15T06:28:50.232Z,10.00
2018-09-15T06:29:50.140Z,9.80
2018-09-15T06:30:50.091Z,10.00
2018-09-15T06:31:49.959Z,10.20
2018-09-15T06:32:49.883Z,10.30
2018-09-15T06:33:49.778Z,9.90
2018-09-15T06:34:49.687Z,10.40
2018-09-15T06:35:49.596Z,10.20
2018-09-15T06:36:49.504Z,10.30
2018-09-15T06:37:49.449Z,10.20
2018-09-15T06:38:49.327Z,11.00
2018-09-15T06:39:49.235Z,10.90
2018-09-15T06:40:49.247Z,10.80
2018-09-15T06:41:49.054Z,10.80
2018-09-15T06:42:49.309Z,10.90
2018-09-15T06:43:48.894Z,11.10
2018-09-15T06:44:48.784Z,10.90
2018-09-15T06:45:48.746Z,11.80
2018-09-15T06:46:48.607Z,12.10
2018-09-15T06:47:48.637Z,12.00
2018-09-15T06:48:48.427Z,12.10
2018-09-15T06:49:48.341Z,11.60
2018-09-15T06:50:48.261Z,11.80
2018-09-15T06:51:48.163Z,12.70
2018-09-15T06:52:48.072Z,13.00
2018-09-15T06:53:48.095Z,11.40
2018-09-15T06:54:47.997Z,12.70
2018-09-15T06:55:47.806Z,11.80
2018-09-15T06:56:47.717Z,12.00
2018-09-15T06:57:47.735Z,13.60
2018-09-15T06:58:47.558Z,14.80
2018-09-15T06:59:47.451Z,15.40
2018-09-15T07:00:47.423Z,16.70
2018-09-15T07:01:47.392Z,16.70
2018-09-15T07:02:47.190Z,18.10
2018-09-15T07:03:47.117Z,20.40
2018-09-15T07:04:47.010Z,19.80
2018-09-15T07:05:46.926Z,19.40
2018-09-15T07:06:46.833Z,18.60
2018-09-15T07:07:46.755Z,19.20
2018-09-15T07:08:46.776Z,19.20
2018-09-15T07:09:46.571Z,18.80
2018-09-15T07:10:46.484Z,18.70
2018-09-15T07:11:46.409Z,19.00
2018-09-15T07:12:46.310Z,20.50
2018-09-15T07:13:46.234Z,20.60
2018-09-15T07:14:46.130Z,21.70
2018-09-15T07:15:46.141Z,22.00
2018-09-15T07:16:45.960Z,21.00
2018-09-15T07:17:45.866Z,20.70
2018-09-15T07:18:45.797Z,21.40
2018-09-15T07:19:45.691Z,22.00
2018-09-15T07:20:45.633Z,21.30
2018-09-15T07:21:45.514Z,20.80
2018-09-15T07:22:45.561Z,20.20
2018-09-15T07:23:45.358Z,20.30
2018-09-15T07:24:45.252Z,18.80
2018-09-15T07:25:45.202Z,18.80
2018-09-15T07:26:45.075Z,19.30
2018-09-15T07:27:44.986Z,19.00
2018-09-15T07:28:44.914Z,18.40
2018-09-15T07:29:44.910Z,17.70
2018-09-15T07:30:44.724Z,17.50
2018-09-15T07:31:44.648Z,18.10
2018-09-15T07:32:44.552Z,17.90
2018-09-15T07:33:44.476Z,18.30
2018-09-15T07:34:44.374Z,19.00
2018-09-15T07:35:44.285Z,19.00
2018-09-15T07:36:44.299Z,19.20
2018-09-15T07:37:44.136Z,19.30
2018-09-15T07:38:44.047Z,18.80
2018-09-15T07:39:43.939Z,18.30
2018-09-15T07:40:43.843Z,19.20
2018-09-15T07:41:43.759Z,18.50
2018-09-15T07:42:43.671Z,18.10
2018-09-15T07:43:43.689Z,17.60
2018-09-15T07:44:43.513Z,16.40
2018-09-15T07:45:43.409Z,16.80
2018-09-15T07:46:43.324Z,15.90
2018-09-15T07:47:43.232Z,16.00
2018-09-15T07:48:43.162Z,16.20
2018-09-15T07:49:43.065Z,15.80
2018-09-15T07:50:42.969Z,15.30
2018-09-15T07:51:42.963Z,15.00
2018-09-15T07:52:42.798Z,14.40
2018-09-15T07:53:42.724Z,14.80
2018-09-15T07:54:42.645Z,14.40
2018-09-15T07:55:42.536Z,13.40
2018-09-15T07:56:42.448Z,12.90
2018-09-15T07:57:42.483Z,12.30
2018-09-15T07:58:42.292Z,11.80
2018-09-15T07:59:42.187Z,11.70
2018-09-15T08:00:42.103Z,11.30
2018-09-15T08:01:42.018Z,11.10
2018-09-15T08:02:41.935Z,11.00
2018-09-15T08:03:41.863Z,10.40
2018-09-15T08:04:41.758Z,10.10
2018-09-15T08:05:41.794Z,10.00
2018-09-15T08:06:41.590Z,10.40
2018-09-15T08:07:41.506Z,9.70
2018-09-15T08:08:41.433Z,9.10
2018-09-15T08:09:41.332Z,9.20
2018-09-15T08:10:41.246Z,8.80
2018-09-15T08:11:41.160Z,8.90
2018-09-15T08:12:41.075Z,8.60
2018-09-15T08:13:41.007Z,8.70
2018-09-15T08:14:40.906Z,8.70
2018-09-15T08:15:40.819Z,9.30
2018-09-15T08:16:40.744Z,7.70
2018-09-15T08:17:40.654Z,6.40
2018-09-15T08:18:40.582Z,6.20
2018-09-15T08:19:40.575Z,6.60
2018-09-15T08:20:40.429Z,7.30
2018-09-15T08:21:40.315Z,7.50
2018-09-15T08:22:40.233Z,6.90
2018-09-15T08:23:40.159Z,5.90
2018-09-15T08:24:40.060Z,5.70
2018-09-15T08:25:39.974Z,5.60
2018-09-15T08:26:39.892Z,5.40
2018-09-15T08:27:39.841Z,4.80
2018-09-15T08:28:39.742Z,4.70
2018-09-15T08:29:39.639Z,5.00
2018-09-15T08:30:39.557Z,5.90
2018-09-15T08:31:39.474Z,5.90
2018-09-15T08:32:39.392Z,6.20
2018-09-15T08:33:39.326Z,6.10
2018-09-15T08:34:39.222Z,6.30
2018-09-15T08:35:39.135Z,5.90
2018-09-15T08:36:39.053Z,6.20
2018-09-15T08:37:38.987Z,5.80
2018-09-15T08:38:38.914Z,4.90
2018-09-15T08:39:38.821Z,4.50
2018-09-15T08:40:38.721Z,4.70
2018-09-15T08:41:38.638Z,4.30
2018-09-15T08:42:38.554Z,3.90
2018-09-15T08:43:38.471Z,4.90
2018-09-15T08:44:38.401Z,5.20
2018-09-15T08:45:38.300Z,5.20
2018-09-15T08:46:38.217Z,4.80
2018-09-15T08:47:38.133Z,4.10
2018-09-15T08:48:38.051Z,3.60
2018-09-15T08:49:37.984Z,3.50
2018-09-15T08:50:37.903Z,4.00
2018-09-15T08:51:37.800Z,3.80
2018-09-15T08:52:37.719Z,4.10
2018-09-15T08:53:37.638Z,4.20
2018-09-15T08:54:37.564Z,4.80
2018-09-15T08:55:37.468Z,5.10
2018-09-15T08:56:37.381Z,5.10
2018-09-15T08:57:37.300Z,4.90
2018-09-15T08:58:37.219Z,4.80
2018-09-15T08:59:37.262Z,4.80
2018-09-15T09:00:37.049Z,4.90
2018-09-15T09:01:36.984Z,5.30
2018-09-15T09:02:36.893Z,4.90
2018-09-15T09:03:36.804Z,5.30
2018-09-15T09:04:36.733Z,5.00
2018-09-15T09:05:36.632Z,5.20
2018-09-15T09:06:36.656Z,5.70
2018-09-15T09:07:36.466Z,6.40
2018-09-15T09:08:36.381Z,5.70
2018-09-15T09:09:36.323Z,6.10
2018-09-15T09:10:36.220Z,6.10
2018-09-15T09:11:36.139Z,6.60
2018-09-15T09:12:36.071Z,6.40
2018-09-15T09:13:36.084Z,7.20
2018-09-15T09:14:35.904Z,7.10
2018-09-15T09:15:35.805Z,6.70
2018-09-15T09:16:35.721Z,7.10
2018-09-15T09:17:35.640Z,6.80
2018-09-15T09:18:35.555Z,7.00
2018-09-15T09:19:35.496Z,6.90
2018-09-15T09:20:35.490Z,6.70
2018-09-15T09:21:35.306Z,6.40
2018-09-15T09:22:35.248Z,7.20
2018-09-15T09:23:35.140Z,7.60
2018-09-15T09:24:35.069Z,7.60
2018-09-15T09:25:34.976Z,7.30
2018-09-15T09:26:34.895Z,6.40
2018-09-15T09:27:34.908Z,7.30
2018-09-15T09:28:34.719Z,7.80
2018-09-15T09:29:34.654Z,6.90
2018-09-15T09:30:34.554Z,6.90
2018-09-15T09:31:34.469Z,7.70
2018-09-15T09:32:34.386Z,7.20
2018-09-15T09:33:34.300Z,7.10
2018-09-15T09:34:34.358Z,7.20
2018-09-15T09:35:34.135Z,6.70
2018-09-15T09:36:34.046Z,6.60
2018-09-15T09:37:33.963Z,7.20
2018-09-15T09:38:33.882Z,7.30
2018-09-15T09:39:33.813Z,7.20
2018-09-15T09:40:33.713Z,6.40
2018-09-15T09:41:33.756Z,7.20
2018-09-15T09:42:33.543Z,7.30
2018-09-15T09:43:33.459Z,8.00
2018-09-15T09:44:33.395Z,8.20
2018-09-15T09:45:33.288Z,8.90
2018-09-15T09:46:33.212Z,8.40
2018-09-15T09:47:33.121Z,7.50
2018-09-15T09:48:33.139Z,7.50
2018-09-15T09:49:32.966Z,7.70
2018-09-15T09:50:32.869Z,7.40
2018-09-15T09:51:32.785Z,7.60
2018-09-15T09:52:32.696Z,7.40
2018-09-15T09:53:32.614Z,7.70
2018-09-15T09:54:32.545Z,7.40
2018-09-15T09:55:32.450Z,7.00
2018-09-15T09:56:32.361Z,6.70
2018-09-15T09:57:32.276Z,6.60
2018-09-15T09:58:32.189Z,6.10
2018-09-15T09:59:32.124Z,6.00
2018-09-15T10:00:32.021Z,5.80
2018-09-15T10:01:31.939Z,5.40
2018-09-15T10:02:31.849Z,5.10
2018-09-15T10:03:31.764Z,6.40
2018-09-15T10:04:31.701Z,6.00
2018-09-15T10:05:31.596Z,5.90
2018-09-15T10:06:31.516Z,5.90
2018-09-15T10:07:31.430Z,5.70
2018-09-15T10:08:31.352Z,5.90
2018-09-15T10:09:31.283Z,5.90
2018-09-15T10:10:31.175Z,6.10
2018-09-15T10:11:31.093Z,5.60
2018-09-15T10:12:31.009Z,5.60
2018-09-15T10:13:30.925Z,5.30
2018-09-15T10:14:30.856Z,5.60
2018-09-15T10:15:30.756Z,5.50
2018-09-15T10:16:30.677Z,4.80
2018-09-15T10:17:30.586Z,5.10
2018-09-15T10:18:30.505Z,5.00
2018-09-15T10:19:30.445Z,5.00
2018-09-15T10:20:30.342Z,4.80
2018-09-15T10:21:30.290Z,4.70
2018-09-15T10:22:30.168Z,4.70
2018-09-15T10:23:30.091Z,4.40
2018-09-15T10:24:30.007Z,3.90
2018-09-15T10:25:29.936Z,4.20
2018-09-15T10:26:29.839Z,4.00
2018-09-15T10:27:29.755Z,4.50
2018-09-15T10:28:29.670Z,4.30
2018-09-15T10:29:29.588Z,4.20
2018-09-15T10:30:29.523Z,3.90
2018-09-15T10:31:29.421Z,3.70
2018-09-15T10:32:29.334Z,4.20
2018-09-15T10:33:29.254Z,3.90
2018-09-15T10:34:29.178Z,3.70
2018-09-15T10:35:29.105Z,3.50
2018-09-15T10:36:29.006Z,3.70
2018-09-15T10:37:28.922Z,4.00
2018-09-15T10:38:28.851Z,3.70
2018-09-15T10:39:28.759Z,3.90
2018-09-15T10:40:28.769Z,3.60
2018-09-15T10:41:28.592Z,3.70
2018-09-15T10:42:28.512Z,4.10
2018-09-15T10:43:28.429Z,4.10
2018-09-15T10:44:28.345Z,3.70
2018-09-15T10:45:28.280Z,3.80
2018-09-15T10:46:28.191Z,3.50
2018-09-15T10:47:28.098Z,3.70
2018-09-15T10:48:28.016Z,3.20
2018-09-15T10:49:27.937Z,2.50
2018-09-15T10:50:27.870Z,2.90
2018-09-15T10:51:27.771Z,3.20
2018-09-15T10:52:27.729Z,3.10
2018-09-15T10:53:27.606Z,2.90
2018-09-15T10:54:27.524Z,3.00
2018-09-15T10:55:27.462Z,3.00
2018-09-15T10:56:27.361Z,3.00
2018-09-15T10:57:27.277Z,2.80
2018-09-15T10:58:27.203Z,2.90
2018-09-15T10:59:27.114Z,3.00
2018-09-15T11:00:27.135Z,3.00
2018-09-15T11:01:26.950Z,2.90
2018-09-15T11:02:26.869Z,3.20
2018-09-15T11:03:26.795Z,2.70
2018-09-15T11:04:26.706Z,2.30
2018-09-15T11:05:26.650Z,2.10
2018-09-15T11:06:26.543Z,2.00
2018-09-15T11:07:26.462Z,1.90
2018-09-15T11:08:26.380Z,2.00
2018-09-15T11:09:26.305Z,1.90
2018-09-15T11:10:26.240Z,1.80
2018-09-15T11:11:26.236Z,1.70
2018-09-15T11:12:26.059Z,2.10
2018-09-15T11:13:26.134Z,1.60
2018-09-15T11:14:25.894Z,2.10
2018-09-15T11:15:25.833Z,1.80
2018-09-15T11:16:25.734Z,1.80
2018-09-15T11:17:25.652Z,1.80
2018-09-15T11:18:25.673Z,1.90
2018-09-15T11:19:25.489Z,1.90
2018-09-15T11:20:25.429Z,1.70
2018-09-15T11:21:25.333Z,1.50
2018-09-15T11:22:25.329Z,1.90
2018-09-15T11:23:25.165Z,1.70
2018-09-15T11:24:25.084Z,1.60
2018-09-15T11:25:25.021Z,1.70
2018-09-15T11:26:24.925Z,1.70
2018-09-15T11:27:24.846Z,1.40
2018-09-15T11:28:24.817Z,1.60
2018-09-15T11:29:24.682Z,1.40
2018-09-15T11:30:24.622Z,1.60
2018-09-15T11:31:24.525Z,1.50
2018-09-15T11:32:24.542Z,1.50
2018-09-15T11:33:24.361Z,1.80
2018-09-15T11:34:24.280Z,1.60
2018-09-15T11:35:24.217Z,1.50
2018-09-15T11:36:24.120Z,1.90
2018-09-15T11:37:24.037Z,1.50
2018-09-15T11:38:23.961Z,1.40
2018-09-15T11:39:23.978Z,1.40
2018-09-15T11:40:23.816Z,1.30
2018-09-15T11:41:23.717Z,1.40
2018-09-15T11:42:23.637Z,1.50
2018-09-15T11:43:23.558Z,1.50
2018-09-15T11:44:23.473Z,1.40
2018-09-15T11:45:23.409Z,1.20
2018-09-15T11:46:23.415Z,1.40
2018-09-15T11:47:23.232Z,1.40
2018-09-15T11:48:23.155Z,1.30
2018-09-15T11:49:23.069Z,1.40
2018-09-15T11:50:23.010Z,1.40
2018-09-15T11:51:22.912Z,1.60
2018-09-15T11:52:22.830Z,1.50
2018-09-15T11:53:22.848Z,1.30
2018-09-15T11:54:22.666Z,1.30
2018-09-15T11:55:22.603Z,1.50
2018-09-15T11:56:22.503Z,1.60
2018-09-15T11:57:22.423Z,1.60
2018-09-15T11:58:22.342Z,1.40
2018-09-15T11:59:22.258Z,1.30
2018-09-15T12:00:22.301Z,1.30
2018-09-15T12:01:22.097Z,1.30
2018-09-15T12:02:22.016Z,1.10
2018-09-15T12:03:21.930Z,1.40
2018-09-15T12:04:21.850Z,1.30
2018-09-15T12:05:21.787Z,1.20
2018-09-15T12:06:21.690Z,1.60
2018-09-15T12:07:21.707Z,1.50
2018-09-15T12:08:21.523Z,1.40
2018-09-15T12:09:21.440Z,1.30
2018-09-15T12:10:21.376Z,1.30
2018-09-15T12:11:21.279Z,1.20
2018-09-15T12:12:21.198Z,1.40
2018-09-15T12:13:21.113Z,1.30
2018-09-15T12:14:21.290Z,1.30
2018-09-15T12:15:20.957Z,1.40
2018-09-15T12:16:20.885Z,1.40
2018-09-15T12:17:20.787Z,1.20
2018-09-15T12:18:20.703Z,1.20
2018-09-15T12:19:20.623Z,1.20
2018-09-15T12:20:20.557Z,1.30
2018-09-15T12:21:20.630Z,1.50
2018-09-15T12:22:20.373Z,1.30
2018-09-15T12:23:20.291Z,1.30
2018-09-15T12:24:20.209Z,1.40
2018-09-15T12:25:20.134Z,1.20
2018-09-15T12:26:20.064Z,1.50
2018-09-15T12:27:19.963Z,1.40
2018-09-15T12:28:19.980Z,1.50
2018-09-15T12:29:19.797Z,1.30
2018-09-15T12:30:19.715Z,1.20
2018-09-15T12:31:19.651Z,1.20
2018-09-15T12:32:19.548Z,1.20
2018-09-15T12:33:19.473Z,1.20
2018-09-15T12:34:19.384Z,1.00
2018-09-15T12:35:19.403Z,1.10
2018-09-15T12:36:19.236Z,1.10
2018-09-15T12:37:19.135Z,1.20
2018-09-15T12:38:19.059Z,1.00
2018-09-15T12:39:19.016Z,1.40
2018-09-15T12:40:18.887Z,1.30
2018-09-15T12:41:18.925Z,1.30
2018-09-15T12:42:18.726Z,1.20
2018-09-15T12:43:18.642Z,1.10
2018-09-15T12:44:18.562Z,1.20
2018-09-15T12:45:18.622Z,1.20
2018-09-15T12:46:18.414Z,1.30
2018-09-15T12:47:18.313Z,1.30
2018-09-15T12:48:18.239Z,1.20
2018-09-15T12:49:18.150Z,1.20
2018-09-15T12:50:18.069Z,1.20
2018-09-15T12:51:18.004Z,1.30
2018-09-15T12:52:17.975Z,1.10
2018-09-15T12:53:17.820Z,1.20
2018-09-15T12:54:17.734Z,1.20
2018-09-15T12:55:17.654Z,1.10
2018-09-15T12:56:17.590Z,1.20
2018-09-15T12:57:17.489Z,1.20
2018-09-15T12:58:17.405Z,1.40
2018-09-15T12:59:17.323Z,1.30
2018-09-15T13:00:17.248Z,1.40
2018-09-15T13:01:17.172Z,1.40